createdAt,value
2023-03-31T00:01:45.318Z,100.00
2023-03-31T00:04:13.364Z,100.00
2023-03-31T00:06:43.319Z,100.00
2023-03-31T00:09:18.912Z,100.00
2023-03-31T00:11:45.755Z,100.00
2023-03-31T00:14:12.411Z,100.00
2023-03-31T00:16:39.478Z,100.00
2023-03-31T00:19:06.282Z,100.00
2023-03-31T00:21:36.754Z,100.00
2023-03-31T00:24:06.179Z,100.00
2023-03-31T00:26:34.205Z,100.00
2023-03-31T00:29:01.353Z,100.00
2023-03-31T00:31:28.826Z,100.00
2023-03-31T00:33:58.658Z,100.00
2023-03-31T00:36:29.104Z,100.00
2023-03-31T00:39:09.408Z,100.00
2023-03-31T00:41:39.193Z,100.00
2023-03-31T00:44:14.685Z,100.00
2023-03-31T00:46:52.870Z,100.00
2023-03-31T00:49:42.050Z,100.00
2023-03-31T00:52:18.903Z,100.00
2023-03-31T00:54:49.332Z,100.00
2023-03-31T00:57:16.093Z,100.00
2023-03-31T01:00:01.604Z,100.00
2023-03-31T01:02:28.848Z,100.00
2023-03-31T01:04:59.275Z,100.00
2023-03-31T01:07:34.353Z,100.00
2023-03-31T01:10:05.025Z,100.00
2023-03-31T01:12:34.245Z,100.00
2023-03-31T01:15:01.602Z,100.00
2023-03-31T01:17:29.873Z,100.00
2023-03-31T01:20:32.918Z,100.00
2023-03-31T01:23:28.831Z,100.00
2023-03-31T01:26:01.471Z,100.00
2023-03-31T01:29:05.165Z,100.00
2023-03-31T01:32:04.787Z,100.00
2023-03-31T01:34:31.555Z,100.00
2023-03-31T01:37:09.895Z,100.00
2023-03-31T01:40:02.953Z,100.00
2023-03-31T01:42:34.308Z,100.00
2023-03-31T01:45:38.746Z,100.00
2023-03-31T01:48:14.373Z,100.00
2023-03-31T01:51:05.273Z,100.00
2023-03-31T01:54:05.988Z,100.00
2023-03-31T01:56:39.305Z,100.00
2023-03-31T01:59:15.823Z,99.92
2023-03-31T02:01:56.398Z,99.71
2023-03-31T02:04:29.410Z,99.87
2023-03-31T02:07:03.870Z,99.64
2023-03-31T02:09:38.070Z,99.47
2023-03-31T02:12:09.620Z,99.38
2023-03-31T02:14:41.187Z,99.47
2023-03-31T02:17:18.132Z,99.10
2023-03-31T02:19:49.461Z,98.92
2023-03-31T02:22:19.657Z,99.47
2023-03-31T02:24:48.775Z,98.80
2023-03-31T02:27:28.463Z,99.26
2023-03-31T02:29:55.897Z,99.59
2023-03-31T02:32:25.158Z,99.17
2023-03-31T02:34:54.310Z,99.76
2023-03-31T02:37:20.978Z,100.00
2023-03-31T02:39:50.564Z,100.00
2023-03-31T02:42:18.145Z,100.00
2023-03-31T02:44:44.908Z,100.00
2023-03-31T02:47:17.591Z,100.00
2023-03-31T02:50:00.598Z,100.00
2023-03-31T02:52:58.698Z,100.00
2023-03-31T02:55:51.136Z,100.00
2023-03-31T02:58:25.892Z,100.00
2023-03-31T03:01:08.103Z,100.00
2023-03-31T03:03:58.001Z,100.00
2023-03-31T03:07:10.026Z,100.00
2023-03-31T03:09:56.637Z,100.00
2023-03-31T03:12:31.207Z,100.00
2023-03-31T03:15:09.173Z,100.00
2023-03-31T03:17:39.630Z,100.00
2023-03-31T03:20:08.478Z,100.00
2023-03-31T03:22:39.536Z,100.00
2023-03-31T03:25:12.780Z,100.00
2023-03-31T03:27:39.948Z,100.00
2023-03-31T03:30:08.915Z,100.00
2023-03-31T03:32:35.879Z,100.00
2023-03-31T03:35:04.349Z,100.00
2023-03-31T03:37:31.166Z,100.00
2023-03-31T03:39:57.853Z,100.00
2023-03-31T03:42:24.394Z,100.00
2023-03-31T03:44:50.858Z,100.00
2023-03-31T03:47:17.371Z,100.00
2023-03-31T03:49:45.043Z,100.00
2023-03-31T03:52:11.571Z,100.00
2023-03-31T03:54:38.091Z,100.00
2023-03-31T03:57:04.563Z,100.00
2023-03-31T03:59:31.216Z,100.00
2023-03-31T04:01:57.703Z,100.00
2023-03-31T04:04:24.450Z,100.00
2023-03-31T04:06:51.187Z,100.00
2023-03-31T04:09:18.008Z,100.00
2023-03-31T04:11:44.480Z,100.00
2023-03-31T04:14:10.918Z,100.00
2023-03-31T04:16:38.439Z,100.00
2023-03-31T04:19:05.190Z,100.00
2023-03-31T04:21:34.814Z,100.00
2023-03-31T04:24:04.483Z,100.00
2023-03-31T04:26:42.984Z,100.00
2023-03-31T04:29:16.377Z,100.00
2023-03-31T04:31:43.977Z,100.00
2023-03-31T04:34:15.199Z,100.00
2023-03-31T04:36:46.929Z,100.00
2023-03-31T04:39:18.596Z,100.00
2023-03-31T04:41:45.405Z,100.00
2023-03-31T04:44:11.954Z,100.00
2023-03-31T04:46:38.387Z,100.00
2023-03-31T04:49:05.749Z,100.00
2023-03-31T04:51:32.420Z,100.00
2023-03-31T04:54:01.373Z,100.00
2023-03-31T04:56:27.973Z,100.00
2023-03-31T04:58:54.499Z,100.00
2023-03-31T05:01:21.088Z,100.00
2023-03-31T05:03:48.111Z,100.00
2023-03-31T05:06:16.090Z,100.00
2023-03-31T05:08:43.545Z,100.00
2023-03-31T05:11:10.937Z,100.00
2023-03-31T05:13:37.364Z,100.00
2023-03-31T05:16:12.349Z,100.00
2023-03-31T05:18:38.911Z,100.00
2023-03-31T05:21:15.316Z,100.00
2023-03-31T05:23:42.148Z,100.00
2023-03-31T05:26:09.267Z,100.00
2023-03-31T05:28:36.238Z,100.00
2023-03-31T05:31:04.428Z,100.00
2023-03-31T05:33:31.255Z,100.00
2023-03-31T05:36:00.216Z,100.00
2023-03-31T05:38:31.543Z,100.00
2023-03-31T05:40:58.396Z,100.00
2023-03-31T05:43:25.240Z,100.00
2023-03-31T05:45:51.847Z,100.00
2023-03-31T05:48:18.368Z,100.00
2023-03-31T05:50:44.883Z,100.00
2023-03-31T05:53:11.635Z,100.00
2023-03-31T05:55:39.745Z,100.00
2023-03-31T05:58:06.966Z,100.00
2023-03-31T06:00:33.558Z,100.00
2023-03-31T06:03:02.884Z,100.00
2023-03-31T06:05:31.198Z,99.91
2023-03-31T06:07:57.957Z,99.68
2023-03-31T06:10:24.481Z,99.51
2023-03-31T06:12:51.044Z,99.57
2023-03-31T06:15:17.672Z,99.13
2023-03-31T06:17:47.115Z,99.33
2023-03-31T06:20:27.101Z,100.00
2023-03-31T06:22:56.844Z,100.00
2023-03-31T06:25:23.620Z,98.90
2023-03-31T06:27:53.009Z,95.36
2023-03-31T06:30:19.860Z,91.52
2023-03-31T06:32:46.408Z,86.53
2023-03-31T06:35:12.909Z,85.49
2023-03-31T06:37:39.446Z,83.59
2023-03-31T06:40:06.769Z,83.06
2023-03-31T06:42:33.261Z,83.79
2023-03-31T06:44:59.839Z,83.94
2023-03-31T06:47:26.298Z,83.95
2023-03-31T06:49:52.762Z,84.08
2023-03-31T06:52:19.230Z,84.63
2023-03-31T06:54:45.956Z,84.27
2023-03-31T06:57:13.095Z,84.80
2023-03-31T06:59:39.704Z,84.73
2023-03-31T07:02:06.774Z,84.54
2023-03-31T07:04:33.404Z,84.85
2023-03-31T07:06:59.894Z,85.05
2023-03-31T07:09:26.362Z,85.61
2023-03-31T07:11:56.310Z,86.03
2023-03-31T07:14:23.328Z,85.68
2023-03-31T07:16:50.877Z,85.47
2023-03-31T07:19:17.725Z,85.59
2023-03-31T07:21:44.186Z,85.81
2023-03-31T07:24:10.849Z,86.35
2023-03-31T07:26:37.359Z,86.98
2023-03-31T07:29:03.842Z,86.52
2023-03-31T07:31:30.498Z,87.51
2023-03-31T07:33:57.063Z,87.83
2023-03-31T07:36:23.554Z,88.38
2023-03-31T07:38:50.207Z,88.53
2023-03-31T07:41:20.142Z,89.46
2023-03-31T07:43:47.733Z,88.71
2023-03-31T07:46:16.877Z,89.25
2023-03-31T07:48:44.017Z,90.10
2023-03-31T07:51:10.551Z,90.40
2023-03-31T07:53:37.232Z,90.53
2023-03-31T07:56:04.043Z,90.40
2023-03-31T07:58:30.956Z,90.16
2023-03-31T08:00:57.443Z,89.91
2023-03-31T08:03:23.923Z,89.79
2023-03-31T08:05:54.204Z,89.69
2023-03-31T08:08:21.499Z,90.12
2023-03-31T08:10:48.937Z,89.84
2023-03-31T08:13:15.485Z,90.09
2023-03-31T08:15:42.083Z,90.01
2023-03-31T08:18:08.855Z,90.54
2023-03-31T08:20:35.830Z,90.59
2023-03-31T08:23:02.369Z,90.35
2023-03-31T08:25:28.900Z,90.15
2023-03-31T08:27:56.047Z,89.92
2023-03-31T08:30:22.733Z,90.29
2023-03-31T08:32:49.324Z,90.17
2023-03-31T08:35:15.905Z,89.15
2023-03-31T08:37:42.466Z,88.28
2023-03-31T08:40:17.056Z,88.45
2023-03-31T08:42:50.582Z,88.22
2023-03-31T08:45:22.824Z,88.88
2023-03-31T08:47:54.779Z,88.43
2023-03-31T08:50:29.073Z,88.57
2023-03-31T08:53:09.067Z,88.92
2023-03-31T08:55:49.300Z,88.29
2023-03-31T08:58:48.766Z,88.02
2023-03-31T09:01:44.156Z,87.72
2023-03-31T09:04:35.593Z,87.26
2023-03-31T09:07:24.121Z,87.33
2023-03-31T09:10:07.402Z,86.61
2023-03-31T09:13:08.720Z,85.63
2023-03-31T09:15:54.110Z,85.13
2023-03-31T09:18:29.744Z,84.29
2023-03-31T09:21:07.131Z,83.52
2023-03-31T09:23:40.248Z,84.08
2023-03-31T09:26:25.328Z,83.48
2023-03-31T09:28:53.472Z,83.26
2023-03-31T09:31:22.057Z,83.25
2023-03-31T09:33:52.754Z,83.32
2023-03-31T09:36:22.480Z,83.57
2023-03-31T09:38:49.892Z,83.81
2023-03-31T09:41:18.825Z,83.46
2023-03-31T09:43:47.073Z,82.73
2023-03-31T09:46:29.574Z,83.23
2023-03-31T09:49:06.133Z,83.81
2023-03-31T09:51:37.285Z,84.12
2023-03-31T09:54:22.602Z,84.06
2023-03-31T09:56:53.530Z,84.48
2023-03-31T09:59:22.610Z,84.84
2023-03-31T10:01:56.974Z,84.73
2023-03-31T10:04:25.872Z,85.25
2023-03-31T10:06:54.480Z,85.76
2023-03-31T10:09:26.423Z,86.19
2023-03-31T10:11:59.572Z,86.58
2023-03-31T10:14:33.586Z,87.46
2023-03-31T10:17:05.618Z,87.21
2023-03-31T10:19:37.859Z,87.33
2023-03-31T10:22:34.266Z,88.06
2023-03-31T10:25:17.090Z,87.95
2023-03-31T10:27:47.282Z,88.84
2023-03-31T10:30:21.232Z,89.73
2023-03-31T10:32:51.196Z,89.51
2023-03-31T10:35:25.013Z,90.03
2023-03-31T10:37:57.243Z,90.35
2023-03-31T10:40:26.944Z,90.61
2023-03-31T10:43:04.574Z,90.98
2023-03-31T10:45:38.607Z,91.21
2023-03-31T10:48:18.880Z,91.81
2023-03-31T10:50:46.539Z,92.32
2023-03-31T10:53:15.796Z,92.25
2023-03-31T10:55:48.748Z,92.38
2023-03-31T10:58:34.194Z,92.65
2023-03-31T11:01:17.252Z,93.52
2023-03-31T11:04:02.835Z,94.96
2023-03-31T11:06:52.620Z,95.47
2023-03-31T11:09:38.042Z,95.65
2023-03-31T11:12:24.753Z,96.33
2023-03-31T11:15:16.885Z,95.69
2023-03-31T11:18:00.493Z,96.27
2023-03-31T11:21:27.925Z,96.07
2023-03-31T11:24:06.514Z,96.06
2023-03-31T11:27:12.547Z,95.97
2023-03-31T11:30:13.712Z,96.26
2023-03-31T11:33:00.688Z,96.33
2023-03-31T11:36:04.462Z,95.90
2023-03-31T11:38:55.398Z,95.97
2023-03-31T11:41:46.884Z,95.63
2023-03-31T11:44:17.083Z,95.44
2023-03-31T11:46:50.537Z,95.19
2023-03-31T11:49:28.762Z,95.40
2023-03-31T11:52:09.913Z,95.38
2023-03-31T11:54:53.800Z,95.83
2023-03-31T11:57:35.862Z,94.98
2023-03-31T12:00:16.559Z,94.49
2023-03-31T12:02:58.524Z,94.16
2023-03-31T12:05:27.406Z,94.28
2023-03-31T12:08:11.368Z,94.21
2023-03-31T12:10:43.492Z,92.48
2023-03-31T12:13:46.657Z,93.87
2023-03-31T12:16:24.696Z,94.19
2023-03-31T12:19:03.592Z,93.98
2023-03-31T12:21:33.090Z,92.99
2023-03-31T12:24:02.684Z,93.06
2023-03-31T12:26:36.207Z,93.05
2023-03-31T12:29:19.629Z,92.90
2023-03-31T12:31:47.150Z,92.83
2023-03-31T12:34:15.930Z,91.72
2023-03-31T12:37:10.729Z,90.78
2023-03-31T12:39:45.931Z,90.27
2023-03-31T12:42:34.472Z,89.96
2023-03-31T12:45:26.696Z,90.24
2023-03-31T12:48:35.722Z,89.51
2023-03-31T12:51:24.599Z,88.69
2023-03-31T12:54:03.276Z,88.15
2023-03-31T12:57:04.575Z,87.15
2023-03-31T12:59:39.316Z,87.49
2023-03-31T13:02:26.480Z,87.38
2023-03-31T13:04:53.427Z,86.40
2023-03-31T13:07:29.058Z,85.81
2023-03-31T13:10:18.842Z,85.66
2023-03-31T13:13:18.175Z,84.26
2023-03-31T13:15:59.803Z,84.85
2023-03-31T13:18:27.189Z,84.33
2023-03-31T13:23:35.416Z,81.95
2023-03-31T13:26:02.707Z,77.57
2023-03-31T13:28:42.325Z,79.22
2023-03-31T13:31:15.012Z,78.36
2023-03-31T13:33:51.257Z,79.66
2023-03-31T13:36:18.061Z,79.06
2023-03-31T13:39:12.866Z,78.91
2023-03-31T13:42:17.570Z,78.60
2023-03-31T13:45:09.047Z,78.54
2023-03-31T13:48:06.713Z,76.50
2023-03-31T13:50:55.705Z,76.31
2023-03-31T13:53:49.637Z,75.88
2023-03-31T13:56:28.286Z,76.23
2023-03-31T13:59:13.546Z,74.21
2023-03-31T14:02:21.246Z,73.80
2023-03-31T14:04:56.735Z,74.43
2023-03-31T14:07:32.430Z,74.41
2023-03-31T14:09:59.610Z,73.49
2023-03-31T14:12:37.908Z,72.64
2023-03-31T14:15:19.129Z,74.69
2023-03-31T14:17:45.996Z,74.38
2023-03-31T14:20:39.797Z,73.95
2023-03-31T14:23:22.816Z,72.83
2023-03-31T14:26:22.015Z,73.75
2023-03-31T14:29:02.755Z,73.45
2023-03-31T14:31:55.519Z,72.71
2023-03-31T14:35:00.449Z,71.43
2023-03-31T14:37:28.180Z,71.50
2023-03-31T14:39:57.478Z,69.87
2023-03-31T14:42:39.483Z,69.29
2023-03-31T14:45:31.325Z,70.40
2023-03-31T14:48:16.525Z,70.41
2023-03-31T14:50:45.547Z,67.90
2023-03-31T14:53:16.751Z,69.16
2023-03-31T14:55:57.890Z,68.20
2023-03-31T14:58:38.821Z,68.22
2023-03-31T15:01:08.429Z,69.00
2023-03-31T15:03:41.574Z,68.27
2023-03-31T15:06:09.591Z,68.93
2023-03-31T15:08:37.569Z,68.88
2023-03-31T15:14:03.516Z,68.81
2023-03-31T15:16:45.274Z,67.90
2023-03-31T15:19:16.679Z,67.88
2023-03-31T15:21:44.037Z,67.59
2023-03-31T15:24:14.884Z,65.84
2023-03-31T15:26:48.484Z,67.26
2023-03-31T15:29:22.352Z,67.04
2023-03-31T15:31:49.633Z,67.65
2023-03-31T15:34:31.325Z,67.90
2023-03-31T15:36:57.941Z,69.08
2023-03-31T15:39:28.436Z,68.93
2023-03-31T15:41:56.710Z,70.31
2023-03-31T15:44:46.888Z,70.30
2023-03-31T15:47:18.937Z,70.02
2023-03-31T15:49:58.922Z,70.02
2023-03-31T15:52:38.349Z,69.19
2023-03-31T15:55:23.706Z,70.37
2023-03-31T15:57:51.853Z,70.66
2023-03-31T16:00:33.837Z,71.75
2023-03-31T16:03:03.874Z,73.38
2023-03-31T16:05:54.335Z,73.50
2023-03-31T16:08:56.301Z,75.43
2023-03-31T16:11:28.200Z,74.85
2023-03-31T16:13:59.792Z,75.49
2023-03-31T16:16:29.432Z,76.31
2023-03-31T16:19:07.341Z,77.13
2023-03-31T16:21:39.991Z,76.68
2023-03-31T16:24:07.084Z,76.83
2023-03-31T16:26:34.130Z,77.53
2023-03-31T16:29:01.083Z,77.76
2023-03-31T16:31:43.153Z,78.05
2023-03-31T16:34:11.355Z,78.19
2023-03-31T16:36:38.153Z,78.87
2023-03-31T16:39:06.676Z,79.09
2023-03-31T16:41:34.572Z,78.68
2023-03-31T16:44:01.144Z,79.16
2023-03-31T16:46:27.728Z,80.29
2023-03-31T16:48:54.353Z,79.64
2023-03-31T16:51:20.934Z,79.47
2023-03-31T16:53:48.096Z,79.95
2023-03-31T16:56:15.669Z,79.93
2023-03-31T16:58:43.633Z,80.23
2023-03-31T17:01:13.047Z,79.34
2023-03-31T17:03:41.579Z,79.83
2023-03-31T17:06:11.941Z,80.22
2023-03-31T17:08:39.662Z,80.55
2023-03-31T17:11:10.952Z,80.75
2023-03-31T17:13:39.588Z,81.42
2023-03-31T17:16:17.506Z,81.60
2023-03-31T17:18:45.604Z,81.26
2023-03-31T17:21:14.696Z,81.58
2023-03-31T17:23:44.957Z,82.04
2023-03-31T17:26:15.722Z,82.35
2023-03-31T17:28:45.518Z,82.55
2023-03-31T17:31:15.602Z,83.06
2023-03-31T17:33:42.515Z,83.29
2023-03-31T17:36:09.963Z,82.67
2023-03-31T17:38:38.520Z,82.75
2023-03-31T17:41:08.256Z,82.63
2023-03-31T17:43:35.753Z,81.68
2023-03-31T17:46:05.232Z,82.23
2023-03-31T17:48:34.382Z,82.17
2023-03-31T17:51:09.502Z,82.24
2023-03-31T17:53:36.747Z,82.45
2023-03-31T17:56:04.353Z,81.87
2023-03-31T17:58:32.213Z,82.54
2023-03-31T18:00:59.192Z,82.30
2023-03-31T18:03:28.845Z,82.49
2023-03-31T18:05:56.296Z,82.15
2023-03-31T18:08:23.036Z,82.36
2023-03-31T18:10:50.528Z,82.50
2023-03-31T18:13:17.545Z,83.03
2023-03-31T18:15:51.495Z,82.87
2023-03-31T18:18:19.035Z,83.38
2023-03-31T18:20:45.948Z,83.68
2023-03-31T18:23:12.569Z,84.24
2023-03-31T18:25:44.022Z,84.34
2023-03-31T18:28:10.910Z,84.47
2023-03-31T18:30:37.940Z,84.23
2023-03-31T18:33:05.121Z,84.38
2023-03-31T18:35:32.264Z,84.30
2023-03-31T18:37:59.219Z,84.83
2023-03-31T18:40:26.184Z,85.13
2023-03-31T18:42:52.915Z,84.88
2023-03-31T18:45:19.654Z,85.56
2023-03-31T18:47:46.580Z,85.69
2023-03-31T18:50:13.936Z,86.06
2023-03-31T18:52:41.302Z,86.42
2023-03-31T18:55:08.221Z,86.50
2023-03-31T18:57:37.145Z,86.54
2023-03-31T19:00:05.422Z,86.51
2023-03-31T19:02:33.070Z,86.82
2023-03-31T19:05:00.334Z,86.46
2023-03-31T19:07:26.926Z,87.06
2023-03-31T19:09:53.736Z,87.18
2023-03-31T19:12:22.277Z,86.57
2023-03-31T19:14:48.854Z,86.33
2023-03-31T19:17:15.640Z,85.73
2023-03-31T19:19:42.319Z,86.14
2023-03-31T19:22:09.578Z,86.50
2023-03-31T19:24:36.724Z,86.49
2023-03-31T19:27:04.250Z,86.88
2023-03-31T19:29:31.864Z,87.25
2023-03-31T19:31:58.418Z,87.23
2023-03-31T19:34:25.052Z,87.50
2023-03-31T19:36:51.586Z,87.85
2023-03-31T19:39:18.170Z,88.33
2023-03-31T19:41:44.633Z,88.96
2023-03-31T19:44:11.621Z,89.24
2023-03-31T19:46:38.151Z,89.73
2023-03-31T19:49:05.173Z,90.22
2023-03-31T19:51:31.817Z,90.34
2023-03-31T19:53:58.548Z,90.70
2023-03-31T19:56:25.658Z,90.73
2023-03-31T19:58:53.610Z,91.15
2023-03-31T20:01:27.374Z,91.23
2023-03-31T20:03:54.712Z,91.14
2023-03-31T20:06:29.969Z,91.27
2023-03-31T20:09:01.067Z,91.40
2023-03-31T20:11:30.851Z,91.46
2023-03-31T20:13:57.906Z,91.20
2023-03-31T20:16:28.019Z,91.45
2023-03-31T20:19:06.222Z,91.47
2023-03-31T20:21:35.798Z,91.44
2023-03-31T20:24:02.792Z,91.62
2023-03-31T20:26:30.691Z,91.98
2023-03-31T20:28:59.289Z,92.23
2023-03-31T20:31:28.913Z,92.28
2023-03-31T20:33:56.710Z,92.41
2023-03-31T20:36:27.203Z,93.05
2023-03-31T20:38:58.047Z,93.86
2023-03-31T20:41:27.791Z,94.20
2023-03-31T20:43:55.505Z,94.63
2023-03-31T20:46:23.101Z,95.05
2023-03-31T20:48:52.172Z,96.36
2023-03-31T20:51:21.900Z,96.70
2023-03-31T20:53:50.347Z,96.59
2023-03-31T20:56:21.947Z,97.40
2023-03-31T20:58:49.781Z,97.66
2023-03-31T21:01:18.415Z,98.30
2023-03-31T21:03:46.491Z,98.53
2023-03-31T21:06:14.561Z,99.39
2023-03-31T21:08:47.057Z,99.63
2023-03-31T21:11:14.441Z,99.46
2023-03-31T21:13:41.205Z,99.51
2023-03-31T21:16:07.870Z,99.77
2023-03-31T21:18:37.313Z,99.96
2023-03-31T21:21:06.848Z,99.68
2023-03-31T21:23:33.578Z,99.90
2023-03-31T21:26:02.224Z,100.00
2023-03-31T21:28:31.699Z,100.00
2023-03-31T21:31:05.551Z,100.00
2023-03-31T21:33:33.535Z,100.00
2023-03-31T21:36:00.294Z,99.93
2023-03-31T21:38:28.954Z,100.00
2023-03-31T21:40:55.882Z,100.00
2023-03-31T21:43:23.279Z,100.00
2023-03-31T21:45:53.242Z,100.00
2023-03-31T21:48:25.220Z,100.00
2023-03-31T21:50:54.611Z,100.00
2023-03-31T21:53:24.921Z,100.00
2023-03-31T21:55:53.500Z,100.00
2023-03-31T21:58:20.101Z,100.00
2023-03-31T22:00:47.452Z,100.00
2023-03-31T22:03:26.447Z,100.00
2023-03-31T22:05:56.013Z,100.00
2023-03-31T22:08:23.182Z,100.00
2023-03-31T22:10:50.728Z,99.84
2023-03-31T22:13:18.156Z,99.65
2023-03-31T22:15:45.189Z,99.79
2023-03-31T22:18:11.975Z,99.75
2023-03-31T22:20:39.278Z,99.59
2023-03-31T22:23:06.353Z,99.94
2023-03-31T22:25:34.135Z,100.00
2023-03-31T22:28:01.832Z,100.00
2023-03-31T22:30:28.442Z,100.00
2023-03-31T22:32:55.501Z,100.00
2023-03-31T22:35:22.717Z,100.00
2023-03-31T22:37:49.327Z,100.00
2023-03-31T22:40:16.298Z,100.00
2023-03-31T22:42:42.979Z,100.00
2023-03-31T22:45:12.202Z,100.00
2023-03-31T22:47:38.799Z,100.00
2023-03-31T22:50:07.041Z,100.00
2023-03-31T22:52:33.622Z,100.00
2023-03-31T22:55:00.818Z,100.00
2023-03-31T22:57:29.063Z,100.00
2023-03-31T22:59:55.613Z,100.00
2023-03-31T23:02:22.128Z,100.00
2023-03-31T23:04:48.783Z,100.00
2023-03-31T23:07:16.927Z,100.00
2023-03-31T23:09:43.397Z,100.00
2023-03-31T23:12:10.278Z,100.00
2023-03-31T23:14:36.998Z,100.00
2023-03-31T23:17:03.740Z,100.00
2023-03-31T23:19:30.781Z,100.00
2023-03-31T23:21:58.519Z,100.00
2023-03-31T23:24:25.337Z,100.00
2023-03-31T23:26:52.400Z,100.00
2023-03-31T23:29:19.084Z,100.00
2023-03-31T23:31:45.783Z,100.00
2023-03-31T23:34:13.974Z,100.00
2023-03-31T23:36:40.639Z,100.00
2023-03-31T23:39:07.148Z,100.00
2023-03-31T23:41:34.863Z,100.00
2023-03-31T23:44:01.757Z,100.00
2023-03-31T23:46:29.748Z,100.00
2023-03-31T23:48:56.634Z,100.00
2023-03-31T23:51:23.624Z,100.00
2023-03-31T23:53:51.463Z,100.00
2023-03-31T23:56:18.419Z,100.00
2023-03-31T23:58:45.121Z,100.00
